sensor_id;sensor_type;location;lat;lon;timestamp;P1;durP1;ratioP1;P2;durP2;ratioP2
45011;SDS011;63444;48.148;11.542;2023-04-24T00:01:23;1.23;;;1.07;;
45011;SDS011;63444;48.148;11.542;2023-04-24T00:03:49;1.00;;;1.00;;
45011;SDS011;63444;48.148;11.542;2023-04-24T00:06:15;1.10;;;1.00;;
45011;SDS011;63444;48.148;11.542;2023-04-24T00:08:42;2.27;;;1.10;;
45011;SDS011;63444;48.148;11.542;2023-04-24T00:11:08;1.13;;;1.07;;
45011;SDS011;63444;48.148;11.542;2023-04-24T00:13:34;1.03;;;0.97;;
45011;SDS011;63444;48.148;11.542;2023-04-24T00:16:00;1.00;;;1.00;;
45011;SDS011;63444;48.148;11.542;2023-04-24T00:18:26;1.20;;;1.00;;
45011;SDS011;63444;48.148;11.542;2023-04-24T00:20:51;0.90;;;0.90;;
45011;SDS011;63444;48.148;11.542;2023-04-24T00:23:17;2.30;;;1.23;;
45011;SDS011;63444;48.148;11.542;2023-04-24T00:25:42;1.10;;;1.00;;
45011;SDS011;63444;48.148;11.542;2023-04-24T00:28:08;1.97;;;0.90;;
45011;SDS011;63444;48.148;11.542;2023-04-24T00:30:34;1.10;;;1.10;;
45011;SDS011;63444;48.148;11.542;2023-04-24T00:32:59;0.93;;;0.90;;
45011;SDS011;63444;48.148;11.542;2023-04-24T00:35:25;2.40;;;0.90;;
45011;SDS011;63444;48.148;11.542;2023-04-24T00:37:50;1.50;;;0.90;;
45011;SDS011;63444;48.148;11.542;2023-04-24T00:40:16;2.20;;;1.00;;
45011;SDS011;63444;48.148;11.542;2023-04-24T00:42:42;1.00;;;0.90;;
45011;SDS011;63444;48.148;11.542;2023-04-24T00:45:08;0.90;;;0.90;;
45011;SDS011;63444;48.148;11.542;2023-04-24T00:47:34;1.40;;;1.00;;
45011;SDS011;63444;48.148;11.542;2023-04-24T00:50:01;1.00;;;0.90;;
45011;SDS011;63444;48.148;11.542;2023-04-24T00:52:28;0.80;;;0.80;;
45011;SDS011;63444;48.148;11.542;2023-04-24T00:54:56;1.93;;;0.90;;
45011;SDS011;63444;48.148;11.542;2023-04-24T00:57:21;0.80;;;0.80;;
45011;SDS011;63444;48.148;11.542;2023-04-24T00:59:48;1.53;;;0.80;;
45011;SDS011;63444;48.148;11.542;2023-04-24T01:02:15;0.80;;;0.80;;
45011;SDS011;63444;48.148;11.542;2023-04-24T01:04:41;2.30;;;0.80;;
45011;SDS011;63444;48.148;11.542;2023-04-24T01:07:07;0.80;;;0.80;;
45011;SDS011;63444;48.148;11.542;2023-04-24T01:09:36;2.03;;;0.87;;
45011;SDS011;63444;48.148;11.542;2023-04-24T01:12:04;1.13;;;0.77;;
45011;SDS011;63444;48.148;11.542;2023-04-24T01:14:30;0.83;;;0.83;;
45011;SDS011;63444;48.148;11.542;2023-04-24T01:16:56;1.43;;;0.73;;
45011;SDS011;63444;48.148;11.542;2023-04-24T01:19:22;0.73;;;0.73;;
45011;SDS011;63444;48.148;11.542;2023-04-24T01:21:48;1.20;;;1.10;;
45011;SDS011;63444;48.148;11.542;2023-04-24T01:24:16;2.30;;;0.90;;
45011;SDS011;63444;48.148;11.542;2023-04-24T01:26:43;0.80;;;0.80;;
45011;SDS011;63444;48.148;11.542;2023-04-24T01:29:09;0.90;;;0.90;;
45011;SDS011;63444;48.148;11.542;2023-04-24T01:31:35;0.70;;;0.70;;
45011;SDS011;63444;48.148;11.542;2023-04-24T01:34:01;0.70;;;0.70;;
45011;SDS011;63444;48.148;11.542;2023-04-24T01:36:27;0.97;;;0.87;;
45011;SDS011;63444;48.148;11.542;2023-04-24T01:38:55;1.23;;;1.00;;
45011;SDS011;63444;48.148;11.542;2023-04-24T01:41:20;1.20;;;0.90;;
45011;SDS011;63444;48.148;11.542;2023-04-24T01:43:47;0.80;;;0.80;;
45011;SDS011;63444;48.148;11.542;2023-04-24T01:46:13;0.93;;;0.90;;
45011;SDS011;63444;48.148;11.542;2023-04-24T01:48:39;0.80;;;0.80;;
45011;SDS011;63444;48.148;11.542;2023-04-24T01:51:06;1.80;;;0.80;;
45011;SDS011;63444;48.148;11.542;2023-04-24T01:53:31;0.60;;;0.60;;
45011;SDS011;63444;48.148;11.542;2023-04-24T01:55:57;0.60;;;0.60;;
45011;SDS011;63444;48.148;11.542;2023-04-24T01:58:23;0.97;;;0.70;;
45011;SDS011;63444;48.148;11.542;2023-04-24T02:00:49;0.67;;;0.67;;
45011;SDS011;63444;48.148;11.542;2023-04-24T02:03:14;0.80;;;0.80;;
45011;SDS011;63444;48.148;11.542;2023-04-24T02:05:40;0.70;;;0.70;;
45011;SDS011;63444;48.148;11.542;2023-04-24T02:08:09;0.90;;;0.90;;
45011;SDS011;63444;48.148;11.542;2023-04-24T02:10:34;0.80;;;0.70;;
45011;SDS011;63444;48.148;11.542;2023-04-24T02:13:00;0.53;;;0.53;;
45011;SDS011;63444;48.148;11.542;2023-04-24T02:15:26;0.90;;;0.90;;
45011;SDS011;63444;48.148;11.542;2023-04-24T02:17:51;0.70;;;0.70;;
45011;SDS011;63444;48.148;11.542;2023-04-24T02:20:17;0.70;;;0.70;;
45011;SDS011;63444;48.148;11.542;2023-04-24T02:22:43;0.60;;;0.60;;
45011;SDS011;63444;48.148;11.542;2023-04-24T02:25:08;0.70;;;0.70;;
45011;SDS011;63444;48.148;11.542;2023-04-24T02:27:34;0.90;;;0.80;;
45011;SDS011;63444;48.148;11.542;2023-04-24T02:29:59;0.70;;;0.70;;
45011;SDS011;63444;48.148;11.542;2023-04-24T02:32:25;1.23;;;0.90;;
45011;SDS011;63444;48.148;11.542;2023-04-24T02:34:51;0.70;;;0.70;;
45011;SDS011;63444;48.148;11.542;2023-04-24T02:37:16;1.73;;;0.80;;
45011;SDS011;63444;48.148;11.542;2023-04-24T02:39:42;1.33;;;0.60;;
45011;SDS011;63444;48.148;11.542;2023-04-24T02:42:07;0.90;;;0.77;;
45011;SDS011;63444;48.148;11.542;2023-04-24T02:44:33;1.03;;;0.80;;
45011;SDS011;63444;48.148;11.542;2023-04-24T02:46:59;0.70;;;0.70;;
45011;SDS011;63444;48.148;11.542;2023-04-24T02:49:24;0.80;;;0.80;;
45011;SDS011;63444;48.148;11.542;2023-04-24T02:51:50;3.27;;;0.77;;
45011;SDS011;63444;48.148;11.542;2023-04-24T02:54:16;0.60;;;0.60;;
45011;SDS011;63444;48.148;11.542;2023-04-24T02:56:42;0.87;;;0.70;;
45011;SDS011;63444;48.148;11.542;2023-04-24T02:59:07;1.50;;;0.80;;
45011;SDS011;63444;48.148;11.542;2023-04-24T03:01:33;1.37;;;0.77;;
45011;SDS011;63444;48.148;11.542;2023-04-24T03:03:59;1.33;;;1.00;;
45011;SDS011;63444;48.148;11.542;2023-04-24T03:06:24;0.70;;;0.70;;
45011;SDS011;63444;48.148;11.542;2023-04-24T03:08:51;0.80;;;0.80;;
45011;SDS011;63444;48.148;11.542;2023-04-24T03:11:17;0.80;;;0.80;;
45011;SDS011;63444;48.148;11.542;2023-04-24T03:13:43;1.03;;;0.80;;
45011;SDS011;63444;48.148;11.542;2023-04-24T03:16:08;0.83;;;0.70;;
45011;SDS011;63444;48.148;11.542;2023-04-24T03:18:34;0.80;;;0.80;;
45011;SDS011;63444;48.148;11.542;2023-04-24T03:21:00;0.93;;;0.70;;
45011;SDS011;63444;48.148;11.542;2023-04-24T03:23:25;1.07;;;0.87;;
45011;SDS011;63444;48.148;11.542;2023-04-24T03:25:51;0.70;;;0.70;;
45011;SDS011;63444;48.148;11.542;2023-04-24T03:28:17;0.80;;;0.80;;
45011;SDS011;63444;48.148;11.542;2023-04-24T03:30:42;1.30;;;0.80;;
45011;SDS011;63444;48.148;11.542;2023-04-24T03:33:08;0.80;;;0.80;;
45011;SDS011;63444;48.148;11.542;2023-04-24T03:35:34;1.70;;;0.80;;
45011;SDS011;63444;48.148;11.542;2023-04-24T03:38:01;1.20;;;1.10;;
45011;SDS011;63444;48.148;11.542;2023-04-24T03:40:26;1.60;;;0.90;;
45011;SDS011;63444;48.148;11.542;2023-04-24T03:42:54;1.20;;;1.10;;
45011;SDS011;63444;48.148;11.542;2023-04-24T03:45:20;1.07;;;0.90;;
45011;SDS011;63444;48.148;11.542;2023-04-24T03:47:46;0.80;;;0.80;;
45011;SDS011;63444;48.148;11.542;2023-04-24T03:50:11;0.83;;;0.83;;
45011;SDS011;63444;48.148;11.542;2023-04-24T03:52:37;1.03;;;0.90;;
45011;SDS011;63444;48.148;11.542;2023-04-24T03:55:03;1.37;;;0.90;;
45011;SDS011;63444;48.148;11.542;2023-04-24T03:57:28;1.50;;;0.90;;
45011;SDS011;63444;48.148;11.542;2023-04-24T03:59:54;3.27;;;1.30;;
45011;SDS011;63444;48.148;11.542;2023-04-24T04:02:20;2.10;;;1.10;;
45011;SDS011;63444;48.148;11.542;2023-04-24T04:04:45;1.57;;;1.10;;
45011;SDS011;63444;48.148;11.542;2023-04-24T04:07:11;0.90;;;0.90;;
45011;SDS011;63444;48.148;11.542;2023-04-24T04:09:37;1.10;;;0.90;;
45011;SDS011;63444;48.148;11.542;2023-04-24T04:12:03;0.80;;;0.80;;
45011;SDS011;63444;48.148;11.542;2023-04-24T04:14:29;0.90;;;0.90;;
45011;SDS011;63444;48.148;11.542;2023-04-24T04:16:54;0.80;;;0.80;;
45011;SDS011;63444;48.148;11.542;2023-04-24T04:19:20;1.13;;;1.00;;
45011;SDS011;63444;48.148;11.542;2023-04-24T04:21:46;0.87;;;0.87;;
45011;SDS011;63444;48.148;11.542;2023-04-24T04:24:17;1.03;;;0.90;;
45011;SDS011;63444;48.148;11.542;2023-04-24T04:26:42;2.23;;;1.00;;
45011;SDS011;63444;48.148;11.542;2023-04-24T04:29:11;0.80;;;0.80;;
45011;SDS011;63444;48.148;11.542;2023-04-24T04:31:37;1.13;;;0.90;;
45011;SDS011;63444;48.148;11.542;2023-04-24T04:34:02;1.77;;;0.90;;
45011;SDS011;63444;48.148;11.542;2023-04-24T04:36:28;0.80;;;0.80;;
45011;SDS011;63444;48.148;11.542;2023-04-24T04:38:54;0.87;;;0.87;;
45011;SDS011;63444;48.148;11.542;2023-04-24T04:41:20;0.80;;;0.80;;
45011;SDS011;63444;48.148;11.542;2023-04-24T04:43:45;1.60;;;0.90;;
45011;SDS011;63444;48.148;11.542;2023-04-24T04:46:12;1.10;;;1.00;;
45011;SDS011;63444;48.148;11.542;2023-04-24T04:48:38;0.90;;;0.90;;
45011;SDS011;63444;48.148;11.542;2023-04-24T04:51:04;0.90;;;0.80;;
45011;SDS011;63444;48.148;11.542;2023-04-24T04:53:30;0.97;;;0.90;;
45011;SDS011;63444;48.148;11.542;2023-04-24T04:55:56;1.10;;;1.00;;
45011;SDS011;63444;48.148;11.542;2023-04-24T04:58:21;1.63;;;1.30;;
45011;SDS011;63444;48.148;11.542;2023-04-24T05:00:47;1.23;;;1.00;;
45011;SDS011;63444;48.148;11.542;2023-04-24T05:03:13;1.73;;;1.20;;
45011;SDS011;63444;48.148;11.542;2023-04-24T05:05:38;2.53;;;1.20;;
45011;SDS011;63444;48.148;11.542;2023-04-24T05:08:06;1.80;;;1.10;;
45011;SDS011;63444;48.148;11.542;2023-04-24T05:10:34;1.03;;;0.83;;
45011;SDS011;63444;48.148;11.542;2023-04-24T05:13:01;1.10;;;1.00;;
45011;SDS011;63444;48.148;11.542;2023-04-24T05:15:28;2.00;;;1.10;;
45011;SDS011;63444;48.148;11.542;2023-04-24T05:17:54;1.53;;;0.90;;
45011;SDS011;63444;48.148;11.542;2023-04-24T05:20:19;2.63;;;1.10;;
45011;SDS011;63444;48.148;11.542;2023-04-24T05:22:45;1.40;;;1.10;;
45011;SDS011;63444;48.148;11.542;2023-04-24T05:25:11;1.73;;;1.00;;
45011;SDS011;63444;48.148;11.542;2023-04-24T05:27:37;0.80;;;0.80;;
45011;SDS011;63444;48.148;11.542;2023-04-24T05:30:03;2.37;;;1.10;;
45011;SDS011;63444;48.148;11.542;2023-04-24T05:32:29;1.20;;;0.90;;
45011;SDS011;63444;48.148;11.542;2023-04-24T05:34:55;1.67;;;0.80;;
45011;SDS011;63444;48.148;11.542;2023-04-24T05:37:21;2.73;;;1.00;;
45011;SDS011;63444;48.148;11.542;2023-04-24T05:39:46;1.27;;;1.03;;
45011;SDS011;63444;48.148;11.542;2023-04-24T05:42:12;1.00;;;0.90;;
45011;SDS011;63444;48.148;11.542;2023-04-24T05:44:37;0.97;;;0.90;;
45011;SDS011;63444;48.148;11.542;2023-04-24T05:47:03;1.27;;;0.90;;
45011;SDS011;63444;48.148;11.542;2023-04-24T05:49:29;0.80;;;0.80;;
45011;SDS011;63444;48.148;11.542;2023-04-24T05:51:54;0.80;;;0.80;;
45011;SDS011;63444;48.148;11.542;2023-04-24T05:54:20;1.80;;;1.00;;
45011;SDS011;63444;48.148;11.542;2023-04-24T05:56:46;1.13;;;0.97;;
45011;SDS011;63444;48.148;11.542;2023-04-24T05:59:11;1.00;;;1.00;;
45011;SDS011;63444;48.148;11.542;2023-04-24T06:01:37;1.20;;;1.10;;
45011;SDS011;63444;48.148;11.542;2023-04-24T06:04:03;0.90;;;0.90;;
45011;SDS011;63444;48.148;11.542;2023-04-24T06:06:28;1.27;;;0.80;;
45011;SDS011;63444;48.148;11.542;2023-04-24T06:08:54;0.70;;;0.70;;
45011;SDS011;63444;48.148;11.542;2023-04-24T06:11:20;0.93;;;0.90;;
45011;SDS011;63444;48.148;11.542;2023-04-24T06:13:46;1.33;;;0.80;;
45011;SDS011;63444;48.148;11.542;2023-04-24T06:16:11;0.70;;;0.70;;
45011;SDS011;63444;48.148;11.542;2023-04-24T06:18:37;0.80;;;0.80;;
45011;SDS011;63444;48.148;11.542;2023-04-24T06:21:03;0.73;;;0.73;;
45011;SDS011;63444;48.148;11.542;2023-04-24T06:23:29;0.80;;;0.80;;
45011;SDS011;63444;48.148;11.542;2023-04-24T06:25:57;1.00;;;0.73;;
45011;SDS011;63444;48.148;11.542;2023-04-24T06:28:22;0.80;;;0.80;;
45011;SDS011;63444;48.148;11.542;2023-04-24T06:30:48;0.73;;;0.70;;
45011;SDS011;63444;48.148;11.542;2023-04-24T06:33:14;0.77;;;0.77;;
45011;SDS011;63444;48.148;11.542;2023-04-24T06:35:39;0.70;;;0.70;;
45011;SDS011;63444;48.148;11.542;2023-04-24T06:38:05;0.70;;;0.70;;
45011;SDS011;63444;48.148;11.542;2023-04-24T06:40:31;1.57;;;0.87;;
45011;SDS011;63444;48.148;11.542;2023-04-24T06:42:56;0.70;;;0.70;;
45011;SDS011;63444;48.148;11.542;2023-04-24T06:45:23;0.90;;;0.90;;
45011;SDS011;63444;48.148;11.542;2023-04-24T06:47:48;0.70;;;0.70;;
45011;SDS011;63444;48.148;11.542;2023-04-24T06:50:14;0.80;;;0.80;;
45011;SDS011;63444;48.148;11.542;2023-04-24T06:52:40;1.00;;;0.87;;
45011;SDS011;63444;48.148;11.542;2023-04-24T06:55:06;0.83;;;0.80;;
45011;SDS011;63444;48.148;11.542;2023-04-24T06:57:32;0.80;;;0.80;;
45011;SDS011;63444;48.148;11.542;2023-04-24T06:59:57;0.70;;;0.70;;
45011;SDS011;63444;48.148;11.542;2023-04-24T07:02:24;0.80;;;0.80;;
45011;SDS011;63444;48.148;11.542;2023-04-24T07:04:49;0.70;;;0.70;;
45011;SDS011;63444;48.148;11.542;2023-04-24T07:07:15;1.70;;;0.83;;
45011;SDS011;63444;48.148;11.542;2023-04-24T07:09:41;1.80;;;0.57;;
45011;SDS011;63444;48.148;11.542;2023-04-24T07:12:07;0.93;;;0.70;;
45011;SDS011;63444;48.148;11.542;2023-04-24T07:14:35;0.70;;;0.70;;
45011;SDS011;63444;48.148;11.542;2023-04-24T07:17:02;1.20;;;0.73;;
45011;SDS011;63444;48.148;11.542;2023-04-24T07:19:28;0.70;;;0.70;;
45011;SDS011;63444;48.148;11.542;2023-04-24T07:21:54;0.80;;;0.80;;
45011;SDS011;63444;48.148;11.542;2023-04-24T07:24:20;0.80;;;0.80;;
45011;SDS011;63444;48.148;11.542;2023-04-24T07:26:45;0.70;;;0.70;;
45011;SDS011;63444;48.148;11.542;2023-04-24T07:29:11;1.77;;;0.80;;
45011;SDS011;63444;48.148;11.542;2023-04-24T07:31:37;0.60;;;0.60;;
45011;SDS011;63444;48.148;11.542;2023-04-24T07:34:03;1.97;;;0.87;;
45011;SDS011;63444;48.148;11.542;2023-04-24T07:36:29;2.97;;;0.80;;
45011;SDS011;63444;48.148;11.542;2023-04-24T07:39:02;2.00;;;0.90;;
45011;SDS011;63444;48.148;11.542;2023-04-24T07:41:40;3.20;;;0.80;;
45011;SDS011;63444;48.148;11.542;2023-04-24T07:44:06;0.70;;;0.70;;
45011;SDS011;63444;48.148;11.542;2023-04-24T07:46:31;1.20;;;0.60;;
45011;SDS011;63444;48.148;11.542;2023-04-24T07:48:58;1.00;;;0.90;;
45011;SDS011;63444;48.148;11.542;2023-04-24T07:51:25;1.07;;;0.80;;
45011;SDS011;63444;48.148;11.542;2023-04-24T07:53:52;2.03;;;0.90;;
45011;SDS011;63444;48.148;11.542;2023-04-24T07:56:20;0.70;;;0.70;;
45011;SDS011;63444;48.148;11.542;2023-04-24T07:58:45;1.23;;;0.90;;
45011;SDS011;63444;48.148;11.542;2023-04-24T08:01:11;1.00;;;0.80;;
45011;SDS011;63444;48.148;11.542;2023-04-24T08:03:37;0.80;;;0.80;;
45011;SDS011;63444;48.148;11.542;2023-04-24T08:06:02;0.70;;;0.70;;
45011;SDS011;63444;48.148;11.542;2023-04-24T08:08:28;0.73;;;0.67;;
45011;SDS011;63444;48.148;11.542;2023-04-24T08:10:54;1.07;;;0.97;;
45011;SDS011;63444;48.148;11.542;2023-04-24T08:13:20;1.10;;;1.00;;
45011;SDS011;63444;48.148;11.542;2023-04-24T08:15:45;1.73;;;1.00;;
45011;SDS011;63444;48.148;11.542;2023-04-24T08:18:11;0.67;;;0.67;;
45011;SDS011;63444;48.148;11.542;2023-04-24T08:20:38;1.10;;;1.00;;
45011;SDS011;63444;48.148;11.542;2023-04-24T08:23:04;2.93;;;1.00;;
45011;SDS011;63444;48.148;11.542;2023-04-24T08:25:30;0.90;;;0.80;;
45011;SDS011;63444;48.148;11.542;2023-04-24T08:27:55;1.97;;;0.80;;
45011;SDS011;63444;48.148;11.542;2023-04-24T08:30:21;0.80;;;0.80;;
45011;SDS011;63444;48.148;11.542;2023-04-24T08:32:47;0.80;;;0.80;;
45011;SDS011;63444;48.148;11.542;2023-04-24T08:35:12;1.40;;;1.00;;
45011;SDS011;63444;48.148;11.542;2023-04-24T08:37:38;1.00;;;0.80;;
45011;SDS011;63444;48.148;11.542;2023-04-24T08:40:05;1.27;;;0.80;;
45011;SDS011;63444;48.148;11.542;2023-04-24T08:42:37;1.63;;;0.90;;
45011;SDS011;63444;48.148;11.542;2023-04-24T08:45:04;1.20;;;0.90;;
45011;SDS011;63444;48.148;11.542;2023-04-24T08:47:31;0.90;;;0.90;;
45011;SDS011;63444;48.148;11.542;2023-04-24T08:49:57;2.47;;;1.00;;
45011;SDS011;63444;48.148;11.542;2023-04-24T08:52:25;1.10;;;1.10;;
45011;SDS011;63444;48.148;11.542;2023-04-24T08:54:50;1.30;;;1.10;;
45011;SDS011;63444;48.148;11.542;2023-04-24T08:57:18;2.43;;;1.07;;
45011;SDS011;63444;48.148;11.542;2023-04-24T08:59:44;3.10;;;0.90;;
45011;SDS011;63444;48.148;11.542;2023-04-24T09:02:23;1.20;;;1.10;;
45011;SDS011;63444;48.148;11.542;2023-04-24T09:07:59;1.87;;;1.00;;
45011;SDS011;63444;48.148;11.542;2023-04-24T09:10:26;1.60;;;1.30;;
45011;SDS011;63444;48.148;11.542;2023-04-24T09:12:55;2.07;;;1.20;;
45011;SDS011;63444;48.148;11.542;2023-04-24T09:15:23;1.10;;;1.00;;
45011;SDS011;63444;48.148;11.542;2023-04-24T09:17:49;0.90;;;0.90;;
45011;SDS011;63444;48.148;11.542;2023-04-24T09:20:23;3.43;;;1.27;;
45011;SDS011;63444;48.148;11.542;2023-04-24T09:22:53;1.20;;;1.10;;
45011;SDS011;63444;48.148;11.542;2023-04-24T09:25:23;2.27;;;1.10;;
45011;SDS011;63444;48.148;11.542;2023-04-24T09:27:58;1.20;;;1.10;;
45011;SDS011;63444;48.148;11.542;2023-04-24T09:30:34;0.90;;;0.90;;
45011;SDS011;63444;48.148;11.542;2023-04-24T09:33:09;1.83;;;1.20;;
45011;SDS011;63444;48.148;11.542;2023-04-24T09:35:36;1.80;;;1.40;;
45011;SDS011;63444;48.148;11.542;2023-04-24T09:38:01;1.67;;;1.10;;
45011;SDS011;63444;48.148;11.542;2023-04-24T09:40:27;1.27;;;1.17;;
45011;SDS011;63444;48.148;11.542;2023-04-24T09:42:54;2.00;;;1.43;;
45011;SDS011;63444;48.148;11.542;2023-04-24T09:45:21;1.77;;;1.30;;
45011;SDS011;63444;48.148;11.542;2023-04-24T09:47:52;2.47;;;1.30;;
45011;SDS011;63444;48.148;11.542;2023-04-24T09:50:21;3.23;;;1.50;;
45011;SDS011;63444;48.148;11.542;2023-04-24T09:52:55;1.57;;;1.40;;
45011;SDS011;63444;48.148;11.542;2023-04-24T09:55:22;1.57;;;1.30;;
45011;SDS011;63444;48.148;11.542;2023-04-24T09:57:48;2.80;;;1.40;;
45011;SDS011;63444;48.148;11.542;2023-04-24T10:00:25;1.40;;;1.30;;
45011;SDS011;63444;48.148;11.542;2023-04-24T10:03:02;3.43;;;1.40;;
45011;SDS011;63444;48.148;11.542;2023-04-24T10:05:35;2.10;;;1.40;;
45011;SDS011;63444;48.148;11.542;2023-04-24T10:08:06;2.27;;;1.30;;
45011;SDS011;63444;48.148;11.542;2023-04-24T10:10:37;2.77;;;1.37;;
45011;SDS011;63444;48.148;11.542;2023-04-24T10:13:09;1.40;;;1.30;;
45011;SDS011;63444;48.148;11.542;2023-04-24T10:15:35;1.20;;;1.20;;
45011;SDS011;63444;48.148;11.542;2023-04-24T10:18:02;1.20;;;1.10;;
45011;SDS011;63444;48.148;11.542;2023-04-24T10:20:30;1.50;;;1.40;;
45011;SDS011;63444;48.148;11.542;2023-04-24T10:22:56;1.63;;;1.53;;
45011;SDS011;63444;48.148;11.542;2023-04-24T10:25:24;3.83;;;1.73;;
45011;SDS011;63444;48.148;11.542;2023-04-24T10:27:51;1.50;;;1.30;;
45011;SDS011;63444;48.148;11.542;2023-04-24T10:30:18;3.40;;;1.63;;
45011;SDS011;63444;48.148;11.542;2023-04-24T10:32:45;2.40;;;1.20;;
45011;SDS011;63444;48.148;11.542;2023-04-24T10:35:14;2.73;;;1.20;;
45011;SDS011;63444;48.148;11.542;2023-04-24T10:40:16;1.60;;;1.30;;
45011;SDS011;63444;48.148;11.542;2023-04-24T10:42:43;1.40;;;1.30;;
45011;SDS011;63444;48.148;11.542;2023-04-24T10:45:16;1.00;;;1.00;;
45011;SDS011;63444;48.148;11.542;2023-04-24T10:47:50;3.57;;;1.47;;
45011;SDS011;63444;48.148;11.542;2023-04-24T10:50:24;2.50;;;1.40;;
45011;SDS011;63444;48.148;11.542;2023-04-24T10:52:51;1.77;;;1.17;;
45011;SDS011;63444;48.148;11.542;2023-04-24T10:58:04;1.43;;;1.20;;
45011;SDS011;63444;48.148;11.542;2023-04-24T11:00:30;1.37;;;0.90;;
45011;SDS011;63444;48.148;11.542;2023-04-24T11:02:56;1.60;;;1.00;;
45011;SDS011;63444;48.148;11.542;2023-04-24T11:05:22;1.13;;;0.90;;
45011;SDS011;63444;48.148;11.542;2023-04-24T11:08:38;1.00;;;1.00;;
45011;SDS011;63444;48.148;11.542;2023-04-24T11:11:09;1.03;;;1.00;;
45011;SDS011;63444;48.148;11.542;2023-04-24T11:21:31;1.10;;;1.00;;
45011;SDS011;63444;48.148;11.542;2023-04-24T11:26:56;3.90;;;1.20;;
45011;SDS011;63444;48.148;11.542;2023-04-24T11:29:23;1.30;;;1.20;;
45011;SDS011;63444;48.148;11.542;2023-04-24T11:32:26;1.27;;;1.17;;
45011;SDS011;63444;48.148;11.542;2023-04-24T11:34:53;5.00;;;1.40;;
45011;SDS011;63444;48.148;11.542;2023-04-24T11:37:37;3.00;;;1.20;;
45011;SDS011;63444;48.148;11.542;2023-04-24T11:40:05;1.10;;;1.10;;
45011;SDS011;63444;48.148;11.542;2023-04-24T11:42:36;1.70;;;1.10;;
45011;SDS011;63444;48.148;11.542;2023-04-24T11:45:10;1.40;;;1.20;;
45011;SDS011;63444;48.148;11.542;2023-04-24T11:47:38;1.07;;;1.07;;
45011;SDS011;63444;48.148;11.542;2023-04-24T11:50:04;1.40;;;1.30;;
45011;SDS011;63444;48.148;11.542;2023-04-24T11:52:33;1.20;;;1.07;;
45011;SDS011;63444;48.148;11.542;2023-04-24T11:55:02;1.23;;;1.00;;
45011;SDS011;63444;48.148;11.542;2023-04-24T11:57:28;1.87;;;1.00;;
45011;SDS011;63444;48.148;11.542;2023-04-24T12:00:01;3.40;;;1.00;;
45011;SDS011;63444;48.148;11.542;2023-04-24T12:02:27;1.07;;;1.00;;
45011;SDS011;63444;48.148;11.542;2023-04-24T12:04:53;1.43;;;1.07;;
45011;SDS011;63444;48.148;11.542;2023-04-24T12:07:19;1.30;;;1.00;;
45011;SDS011;63444;48.148;11.542;2023-04-24T12:09:50;1.30;;;1.00;;
45011;SDS011;63444;48.148;11.542;2023-04-24T12:12:25;1.00;;;1.00;;
45011;SDS011;63444;48.148;11.542;2023-04-24T12:14:52;1.00;;;1.00;;
45011;SDS011;63444;48.148;11.542;2023-04-24T12:17:26;4.07;;;1.37;;
45011;SDS011;63444;48.148;11.542;2023-04-24T12:19:57;2.00;;;1.20;;
45011;SDS011;63444;48.148;11.542;2023-04-24T12:25:16;1.17;;;1.03;;
45011;SDS011;63444;48.148;11.542;2023-04-24T12:27:44;2.07;;;1.17;;
45011;SDS011;63444;48.148;11.542;2023-04-24T12:30:11;2.87;;;1.20;;
45011;SDS011;63444;48.148;11.542;2023-04-24T12:32:50;1.20;;;1.10;;
45011;SDS011;63444;48.148;11.542;2023-04-24T12:35:20;2.00;;;1.80;;
45011;SDS011;63444;48.148;11.542;2023-04-24T12:37:50;2.40;;;1.20;;
45011;SDS011;63444;48.148;11.542;2023-04-24T12:40:16;1.17;;;1.03;;
45011;SDS011;63444;48.148;11.542;2023-04-24T12:42:44;2.00;;;1.10;;
45011;SDS011;63444;48.148;11.542;2023-04-24T12:45:14;1.23;;;1.00;;
45011;SDS011;63444;48.148;11.542;2023-04-24T12:47:41;1.13;;;1.00;;
45011;SDS011;63444;48.148;11.542;2023-04-24T12:50:08;1.93;;;1.20;;
45011;SDS011;63444;48.148;11.542;2023-04-24T12:52:35;1.47;;;1.00;;
45011;SDS011;63444;48.148;11.542;2023-04-24T12:55:01;1.87;;;1.10;;
45011;SDS011;63444;48.148;11.542;2023-04-24T12:57:28;3.43;;;1.50;;
45011;SDS011;63444;48.148;11.542;2023-04-24T12:59:55;1.50;;;1.13;;
45011;SDS011;63444;48.148;11.542;2023-04-24T13:02:23;1.33;;;1.17;;
45011;SDS011;63444;48.148;11.542;2023-04-24T13:04:49;5.80;;;1.60;;
45011;SDS011;63444;48.148;11.542;2023-04-24T13:07:15;1.20;;;1.00;;
45011;SDS011;63444;48.148;11.542;2023-04-24T13:09:44;2.50;;;1.03;;
45011;SDS011;63444;48.148;11.542;2023-04-24T13:12:11;4.63;;;1.07;;
45011;SDS011;63444;48.148;11.542;2023-04-24T13:14:37;1.33;;;1.10;;
45011;SDS011;63444;48.148;11.542;2023-04-24T13:17:03;1.20;;;1.10;;
45011;SDS011;63444;48.148;11.542;2023-04-24T13:19:29;1.80;;;1.30;;
45011;SDS011;63444;48.148;11.542;2023-04-24T13:22:01;1.60;;;1.37;;
45011;SDS011;63444;48.148;11.542;2023-04-24T13:24:26;1.43;;;1.10;;
45011;SDS011;63444;48.148;11.542;2023-04-24T13:26:52;1.50;;;1.10;;
45011;SDS011;63444;48.148;11.542;2023-04-24T13:29:18;3.43;;;1.60;;
45011;SDS011;63444;48.148;11.542;2023-04-24T13:31:45;2.47;;;1.30;;
45011;SDS011;63444;48.148;11.542;2023-04-24T13:34:12;2.07;;;1.40;;
45011;SDS011;63444;48.148;11.542;2023-04-24T13:36:38;2.20;;;1.20;;
45011;SDS011;63444;48.148;11.542;2023-04-24T13:39:04;1.83;;;1.10;;
45011;SDS011;63444;48.148;11.542;2023-04-24T13:41:32;2.73;;;1.30;;
45011;SDS011;63444;48.148;11.542;2023-04-24T13:43:58;2.47;;;1.23;;
45011;SDS011;63444;48.148;11.542;2023-04-24T13:46:24;1.90;;;1.60;;
45011;SDS011;63444;48.148;11.542;2023-04-24T13:48:50;4.03;;;1.40;;
45011;SDS011;63444;48.148;11.542;2023-04-24T13:51:15;6.10;;;1.67;;
45011;SDS011;63444;48.148;11.542;2023-04-24T13:53:41;2.93;;;1.20;;
45011;SDS011;63444;48.148;11.542;2023-04-24T13:56:07;2.97;;;1.40;;
45011;SDS011;63444;48.148;11.542;2023-04-24T13:58:33;2.90;;;1.20;;
45011;SDS011;63444;48.148;11.542;2023-04-24T14:01:01;1.10;;;1.00;;
45011;SDS011;63444;48.148;11.542;2023-04-24T14:03:26;2.13;;;1.20;;
45011;SDS011;63444;48.148;11.542;2023-04-24T14:05:52;3.33;;;1.20;;
45011;SDS011;63444;48.148;11.542;2023-04-24T14:08:17;1.40;;;1.20;;
45011;SDS011;63444;48.148;11.542;2023-04-24T14:10:43;2.40;;;1.40;;
45011;SDS011;63444;48.148;11.542;2023-04-24T14:13:08;2.43;;;1.30;;
45011;SDS011;63444;48.148;11.542;2023-04-24T14:15:37;3.63;;;1.40;;
45011;SDS011;63444;48.148;11.542;2023-04-24T14:18:03;2.23;;;1.40;;
45011;SDS011;63444;48.148;11.542;2023-04-24T14:20:28;1.90;;;1.10;;
45011;SDS011;63444;48.148;11.542;2023-04-24T14:22:54;2.37;;;1.37;;
45011;SDS011;63444;48.148;11.542;2023-04-24T14:25:20;2.50;;;1.30;;
45011;SDS011;63444;48.148;11.542;2023-04-24T14:27:47;1.30;;;1.20;;
45011;SDS011;63444;48.148;11.542;2023-04-24T14:30:12;2.10;;;1.20;;
45011;SDS011;63444;48.148;11.542;2023-04-24T14:32:38;2.50;;;1.40;;
45011;SDS011;63444;48.148;11.542;2023-04-24T14:35:05;2.30;;;1.30;;
45011;SDS011;63444;48.148;11.542;2023-04-24T14:37:31;1.77;;;1.43;;
45011;SDS011;63444;48.148;11.542;2023-04-24T14:39:57;2.43;;;1.30;;
45011;SDS011;63444;48.148;11.542;2023-04-24T14:42:23;2.47;;;1.67;;
45011;SDS011;63444;48.148;11.542;2023-04-24T14:44:49;1.50;;;1.40;;
45011;SDS011;63444;48.148;11.542;2023-04-24T14:47:15;1.27;;;1.10;;
45011;SDS011;63444;48.148;11.542;2023-04-24T14:49:42;2.23;;;1.23;;
45011;SDS011;63444;48.148;11.542;2023-04-24T14:52:08;2.80;;;1.30;;
45011;SDS011;63444;48.148;11.542;2023-04-24T14:54:35;1.80;;;1.70;;